Harshaw, Wisconsin
Current Conditions -  °F | °C
As of 3:53 PM on Thursday 23 Oct 2014 (Local Time) from KRHI Reporting Station
Overcast Overcast  
Wind Chill: 41°   Ceiling: 500
Heat Index: 44°   Visibility: 10mi
Dew Point: 43°   Wind: 6mph
Humidity: 96%   Direction: 190°S
Pressure: 30.02"   Gusts: NA
Location:  45.67°N, 89.66°W
Report Text: KRHI 232053Z AUTO 19005KT 10SM OVC005 07/06 A3002 RMK AO2 RAE21 SLP175 P0000 60004 T00670061 56009
Loading
Personal Weather Stations






























Interactive Weather Map
Tropical Storm Tracking
New forecast layout! Learn more

10-Day Weather Forecast

Advertisements
Track Severe Weather on mobile